AFR77ST LFPG-GMTT
Flight info
| Callsign | AFR77ST |
|---|---|
| Flight time | 2h 16m |
| Altitude | 35000 |
| Route | AGOPA DCT ARKIP DCT ARMAL DCT ARTAX DCT BEBIX DCT LMG DCT UVELI DCT OSMOB DCT ARVID DCT PPN DCT NOLSA DCT ALEPO DCT VASUM N10 CJN L27 BLN DCT MGA DCT PIMOS N869 GALTO M143 LAMAD |
| Aircraft | A320/M-SDE3FGHIRWY/LB1 |
Departure
| Time | 2026-04-23 18:21 |
|---|---|
| Airport | Charles de Gaulle International Airport (LFPG) |
Arrival
| Time | 2026-04-23 20:37 |
|---|---|
| Airport | Tangier Ibn Battuta Airport (GMTT) |
| Time | Latitude | Longitude | Altitude | Speed | Heading |
|---|---|---|---|---|---|
| 2026-04-23 18:00 | 49.00203 | 2.58415 | 354 ft | 0 kts | 85° |
| 2026-04-23 18:11 | 49.00202 | 2.58405 | 363 ft | 4 kts | 92° |
| 2026-04-23 18:11 | 49.00202 | 2.58366 | 358 ft | 4 kts | 92° |
| 2026-04-23 18:11 | 49.00206 | 2.58327 | 362 ft | 4 kts | 117° |
| 2026-04-23 18:11 | 49.00221 | 2.58303 | 361 ft | 3 kts | 174° |
| 2026-04-23 18:12 | 49.00223 | 2.58302 | 360 ft | 0 kts | 176° |
| 2026-04-23 18:14 | 49.00187 | 2.58306 | 357 ft | 11 kts | 176° |
| 2026-04-23 18:14 | 49.00112 | 2.58313 | 354 ft | 10 kts | 176° |
| 2026-04-23 18:14 | 49.00041 | 2.58317 | 354 ft | 10 kts | 190° |
| 2026-04-23 18:15 | 49.00008 | 2.58240 | 357 ft | 9 kts | 262° |
| 2026-04-23 18:15 | 49.00003 | 2.58150 | 354 ft | 8 kts | 265° |
| 2026-04-23 18:15 | 48.99997 | 2.58052 | 354 ft | 12 kts | 264° |
| 2026-04-23 18:15 | 48.99987 | 2.57893 | 362 ft | 18 kts | 265° |
| 2026-04-23 18:16 | 48.99981 | 2.57754 | 354 ft | 22 kts | 266° |
| 2026-04-23 18:16 | 48.99970 | 2.57497 | 354 ft | 27 kts | 264° |
| 2026-04-23 18:16 | 48.99955 | 2.57225 | 354 ft | 21 kts | 266° |
| 2026-04-23 18:17 | 48.99935 | 2.56885 | 354 ft | 15 kts | 263° |
| 2026-04-23 18:17 | 48.99926 | 2.56731 | 360 ft | 14 kts | 266° |
| 2026-04-23 18:17 | 48.99920 | 2.56585 | 354 ft | 13 kts | 266° |
| 2026-04-23 18:17 | 48.99912 | 2.56447 | 360 ft | 13 kts | 265° |
| 2026-04-23 18:18 | 48.99905 | 2.56316 | 354 ft | 12 kts | 265° |
| 2026-04-23 18:18 | 48.99899 | 2.56191 | 354 ft | 12 kts | 265° |
| 2026-04-23 18:18 | 48.99891 | 2.56072 | 354 ft | 11 kts | 258° |
| 2026-04-23 18:18 | 48.99836 | 2.56018 | 357 ft | 10 kts | 180° |
| 2026-04-23 18:19 | 48.99771 | 2.56025 | 356 ft | 9 kts | 175° |
| 2026-04-23 18:19 | 48.99712 | 2.56032 | 354 ft | 8 kts | 175° |
| 2026-04-23 18:19 | 48.99655 | 2.56039 | 354 ft | 8 kts | 175° |
| 2026-04-23 18:19 | 48.99615 | 2.56077 | 355 ft | 7 kts | 104° |
| 2026-04-23 18:20 | 48.99621 | 2.56210 | 358 ft | 33 kts | 84° |
| 2026-04-23 18:20 | 48.99659 | 2.56915 | 359 ft | 98 kts | 86° |
| 2026-04-23 18:20 | 48.99736 | 2.58201 | 355 ft | 146 kts | 85° |
| 2026-04-23 18:20 | 48.99819 | 2.59886 | 728 ft | 159 kts | 85° |
| 2026-04-23 18:21 | 48.99900 | 2.61572 | 1445 ft | 160 kts | 84° |
| 2026-04-23 18:21 | 48.99993 | 2.63267 | 2217 ft | 157 kts | 83° |
| 2026-04-23 18:21 | 49.00083 | 2.64902 | 2924 ft | 154 kts | 84° |
| 2026-04-23 18:21 | 49.00168 | 2.66514 | 3609 ft | 151 kts | 85° |
| 2026-04-23 18:22 | 49.00250 | 2.68264 | 3836 ft | 178 kts | 85° |
| 2026-04-23 18:22 | 49.00348 | 2.70235 | 4193 ft | 195 kts | 85° |
| 2026-04-23 18:22 | 49.00462 | 2.72385 | 4564 ft | 214 kts | 86° |
| 2026-04-23 18:22 | 49.00579 | 2.74771 | 4955 ft | 238 kts | 86° |
| 2026-04-23 18:23 | 49.00636 | 2.77403 | 5383 ft | 260 kts | 97° |
| 2026-04-23 18:23 | 48.98694 | 2.81985 | 7171 ft | 266 kts | 146° |
| 2026-04-23 18:24 | 48.95108 | 2.82929 | 8983 ft | 276 kts | 195° |
| 2026-04-23 18:24 | 48.93391 | 2.81564 | 9757 ft | 287 kts | 210° |
| 2026-04-23 18:24 | 48.91707 | 2.79869 | 10458 ft | 293 kts | 212° |
| 2026-04-23 18:25 | 48.88128 | 2.76234 | 11361 ft | 325 kts | 210° |
| 2026-04-23 18:25 | 48.86188 | 2.74403 | 12045 ft | 331 kts | 210° |
| 2026-04-23 18:25 | 48.84220 | 2.72529 | 12730 ft | 338 kts | 210° |
| 2026-04-23 18:25 | 48.82214 | 2.70616 | 13453 ft | 343 kts | 210° |
| 2026-04-23 18:26 | 48.80184 | 2.68684 | 14174 ft | 347 kts | 210° |
| 2026-04-23 18:26 | 48.78132 | 2.66721 | 14816 ft | 350 kts | 210° |
| 2026-04-23 18:26 | 48.76066 | 2.64746 | 15485 ft | 353 kts | 210° |
| 2026-04-23 18:26 | 48.73975 | 2.62745 | 16160 ft | 356 kts | 209° |
| 2026-04-23 18:27 | 48.71875 | 2.60745 | 16836 ft | 358 kts | 209° |
| 2026-04-23 18:27 | 48.69766 | 2.58731 | 17537 ft | 360 kts | 209° |
| 2026-04-23 18:27 | 48.67642 | 2.56702 | 18231 ft | 362 kts | 208° |
| 2026-04-23 18:27 | 48.65505 | 2.54670 | 18852 ft | 364 kts | 208° |
| 2026-04-23 18:28 | 48.63353 | 2.52623 | 19399 ft | 367 kts | 208° |
| 2026-04-23 18:28 | 48.61185 | 2.50570 | 19970 ft | 370 kts | 208° |
| 2026-04-23 18:28 | 48.58995 | 2.48493 | 20524 ft | 372 kts | 208° |
| 2026-04-23 18:28 | 48.56799 | 2.46399 | 21065 ft | 375 kts | 208° |
| 2026-04-23 18:29 | 48.54575 | 2.44289 | 21596 ft | 378 kts | 208° |
| 2026-04-23 18:29 | 48.52337 | 2.42166 | 22113 ft | 382 kts | 207° |
| 2026-04-23 18:29 | 48.50077 | 2.40037 | 22623 ft | 385 kts | 207° |
| 2026-04-23 18:29 | 48.47801 | 2.37889 | 23135 ft | 388 kts | 207° |
| 2026-04-23 18:30 | 48.45505 | 2.35718 | 23646 ft | 391 kts | 207° |
| 2026-04-23 18:30 | 48.43189 | 2.33544 | 24100 ft | 394 kts | 207° |
| 2026-04-23 18:30 | 48.40862 | 2.31357 | 24556 ft | 396 kts | 207° |
| 2026-04-23 18:30 | 48.38520 | 2.29148 | 24996 ft | 398 kts | 207° |
| 2026-04-23 18:31 | 48.36165 | 2.26942 | 25430 ft | 400 kts | 207° |
| 2026-04-23 18:31 | 48.33793 | 2.24729 | 25867 ft | 402 kts | 207° |
| 2026-04-23 18:31 | 48.31418 | 2.22498 | 26298 ft | 404 kts | 207° |
| 2026-04-23 18:31 | 48.29031 | 2.20261 | 26726 ft | 405 kts | 207° |
| 2026-04-23 18:32 | 48.26635 | 2.18022 | 27133 ft | 407 kts | 207° |
| 2026-04-23 18:32 | 48.24225 | 2.15768 | 27539 ft | 409 kts | 207° |
| 2026-04-23 18:32 | 48.21805 | 2.13504 | 27962 ft | 411 kts | 207° |
| 2026-04-23 18:32 | 48.19369 | 2.11235 | 28314 ft | 414 kts | 208° |
| 2026-04-23 18:33 | 48.16901 | 2.08952 | 28580 ft | 420 kts | 208° |
| 2026-04-23 18:33 | 48.14409 | 2.06630 | 28923 ft | 423 kts | 209° |
| 2026-04-23 18:33 | 48.11890 | 2.04328 | 29267 ft | 425 kts | 205° |
| 2026-04-23 18:33 | 48.09196 | 2.02549 | 29627 ft | 424 kts | 196° |
| 2026-04-23 18:34 | 48.06339 | 2.01484 | 29911 ft | 425 kts | 186° |
| 2026-04-23 18:34 | 48.03382 | 2.01221 | 30056 ft | 428 kts | 176° |
| 2026-04-23 18:34 | 48.00382 | 2.01421 | 30209 ft | 434 kts | 175° |
| 2026-04-23 18:34 | 47.97342 | 2.01625 | 30353 ft | 441 kts | 176° |
| 2026-04-23 18:35 | 47.94259 | 2.01806 | 30474 ft | 446 kts | 176° |
| 2026-04-23 18:35 | 47.91138 | 2.01992 | 30617 ft | 451 kts | 176° |
| 2026-04-23 18:35 | 47.87993 | 2.02182 | 30879 ft | 453 kts | 176° |
| 2026-04-23 18:35 | 47.84832 | 2.02373 | 31146 ft | 455 kts | 176° |
| 2026-04-23 18:36 | 47.81666 | 2.02553 | 31443 ft | 456 kts | 176° |
| 2026-04-23 18:36 | 47.78495 | 2.02745 | 31708 ft | 457 kts | 177° |
| 2026-04-23 18:36 | 47.75302 | 2.02932 | 31892 ft | 462 kts | 178° |
| 2026-04-23 18:36 | 47.72071 | 2.03123 | 32013 ft | 467 kts | 178° |
| 2026-04-23 18:37 | 47.68810 | 2.03312 | 32155 ft | 472 kts | 179° |
| 2026-04-23 18:37 | 47.65520 | 2.03500 | 32383 ft | 474 kts | 178° |
| 2026-04-23 18:37 | 47.62216 | 2.03702 | 32695 ft | 475 kts | 178° |
| 2026-04-23 18:37 | 47.58912 | 2.03890 | 33009 ft | 475 kts | 179° |
| 2026-04-23 18:38 | 47.55612 | 2.04082 | 33303 ft | 476 kts | 179° |
| 2026-04-23 18:38 | 47.52283 | 2.04283 | 33463 ft | 480 kts | 179° |
| 2026-04-23 18:38 | 47.48935 | 2.04468 | 33724 ft | 482 kts | 180° |
| 2026-04-23 18:38 | 47.45586 | 2.04650 | 34046 ft | 482 kts | 179° |
| 2026-04-23 18:39 | 47.42236 | 2.04833 | 34357 ft | 481 kts | 179° |
| 2026-04-23 18:39 | 47.38897 | 2.05029 | 34671 ft | 480 kts | 179° |
| 2026-04-23 18:39 | 47.35563 | 2.05204 | 34993 ft | 478 kts | 182° |
| 2026-04-23 18:39 | 47.32249 | 2.04879 | 35175 ft | 478 kts | 191° |
| 2026-04-23 18:40 | 47.28967 | 2.04065 | 35203 ft | 478 kts | 193° |
| 2026-04-23 18:40 | 47.22422 | 2.02358 | 35193 ft | 478 kts | 192° |
| 2026-04-23 18:41 | 47.15865 | 2.00690 | 35179 ft | 478 kts | 193° |
| 2026-04-23 18:41 | 47.09299 | 1.99041 | 35189 ft | 479 kts | 193° |
| 2026-04-23 18:42 | 47.02725 | 1.97378 | 35189 ft | 480 kts | 193° |
| 2026-04-23 18:42 | 46.96146 | 1.95724 | 35186 ft | 480 kts | 193° |
| 2026-04-23 18:43 | 46.89565 | 1.94090 | 35177 ft | 479 kts | 193° |
| 2026-04-23 18:43 | 46.82992 | 1.92459 | 35178 ft | 479 kts | 193° |
| 2026-04-23 18:44 | 46.76420 | 1.90810 | 35177 ft | 479 kts | 193° |
| 2026-04-23 18:44 | 46.69842 | 1.89175 | 35177 ft | 479 kts | 193° |
| 2026-04-23 18:45 | 46.63268 | 1.87554 | 35171 ft | 479 kts | 193° |
| 2026-04-23 18:45 | 46.56693 | 1.85925 | 35174 ft | 479 kts | 193° |
| 2026-04-23 18:46 | 46.50121 | 1.84312 | 35165 ft | 479 kts | 193° |
| 2026-04-23 18:46 | 46.43555 | 1.82699 | 35169 ft | 478 kts | 193° |
| 2026-04-23 18:47 | 46.37003 | 1.81093 | 35168 ft | 478 kts | 193° |
| 2026-04-23 18:47 | 46.30467 | 1.79453 | 35160 ft | 476 kts | 197° |
| 2026-04-23 18:48 | 46.24392 | 1.76055 | 35159 ft | 464 kts | 216° |
| 2026-04-23 18:48 | 46.19370 | 1.70397 | 35152 ft | 457 kts | 226° |
| 2026-04-23 18:49 | 46.14585 | 1.64374 | 35140 ft | 457 kts | 226° |
| 2026-04-23 18:49 | 46.09779 | 1.58389 | 35126 ft | 456 kts | 225° |
| 2026-04-23 18:50 | 46.05751 | 1.53393 | 35137 ft | 455 kts | 225° |
| 2026-04-23 18:50 | 46.00173 | 1.46488 | 35143 ft | 455 kts | 225° |
| 2026-04-23 18:51 | 45.95561 | 1.40324 | 35124 ft | 449 kts | 234° |
| 2026-04-23 18:51 | 45.92335 | 1.32802 | 35133 ft | 441 kts | 248° |
| 2026-04-23 18:52 | 45.89580 | 1.24940 | 35135 ft | 441 kts | 247° |
| 2026-04-23 18:52 | 45.86794 | 1.17102 | 35117 ft | 441 kts | 247° |
| 2026-04-23 18:53 | 45.84001 | 1.09284 | 35119 ft | 441 kts | 246° |
| 2026-04-23 18:53 | 45.80716 | 1.01839 | 35121 ft | 448 kts | 232° |
| 2026-04-23 18:54 | 45.76032 | 0.95856 | 35122 ft | 453 kts | 223° |
| 2026-04-23 18:54 | 45.71970 | 0.91026 | 35122 ft | 453 kts | 224° |
| 2026-04-23 18:55 | 45.67130 | 0.85253 | 35121 ft | 453 kts | 224° |
| 2026-04-23 18:55 | 45.62298 | 0.79486 | 35122 ft | 453 kts | 224° |
| 2026-04-23 18:56 | 45.57454 | 0.73743 | 35103 ft | 452 kts | 223° |
| 2026-04-23 18:56 | 45.52630 | 0.68008 | 35113 ft | 451 kts | 223° |
| 2026-04-23 18:57 | 45.47815 | 0.62281 | 35122 ft | 451 kts | 223° |
| 2026-04-23 18:57 | 45.42985 | 0.56595 | 35113 ft | 450 kts | 223° |
| 2026-04-23 18:58 | 45.38161 | 0.50916 | 35100 ft | 450 kts | 223° |
| 2026-04-23 18:58 | 45.33334 | 0.45255 | 35099 ft | 450 kts | 223° |
| 2026-04-23 18:59 | 45.28512 | 0.39594 | 35096 ft | 450 kts | 223° |
| 2026-04-23 18:59 | 45.23693 | 0.33945 | 35103 ft | 449 kts | 223° |
| 2026-04-23 19:00 | 45.18876 | 0.28319 | 35082 ft | 448 kts | 223° |
| 2026-04-23 19:00 | 45.14060 | 0.22715 | 35093 ft | 448 kts | 223° |
| 2026-04-23 19:01 | 45.09254 | 0.17111 | 35092 ft | 447 kts | 223° |
| 2026-04-23 19:01 | 45.04439 | 0.11542 | 35090 ft | 447 kts | 223° |
| 2026-04-23 19:02 | 44.99628 | 0.05979 | 35084 ft | 447 kts | 223° |
| 2026-04-23 19:02 | 44.94822 | 0.00423 | 35084 ft | 446 kts | 223° |
| 2026-04-23 19:03 | 44.90010 | -0.05115 | 35087 ft | 445 kts | 222° |
| 2026-04-23 19:03 | 44.85207 | -0.10619 | 35094 ft | 445 kts | 222° |
| 2026-04-23 19:04 | 44.80416 | -0.16117 | 35094 ft | 444 kts | 222° |
| 2026-04-23 19:04 | 44.75621 | -0.21615 | 35088 ft | 444 kts | 222° |
| 2026-04-23 19:05 | 44.70826 | -0.27087 | 35087 ft | 444 kts | 222° |
| 2026-04-23 19:05 | 44.66020 | -0.32537 | 35077 ft | 445 kts | 220° |
| 2026-04-23 19:06 | 44.60668 | -0.36978 | 35077 ft | 449 kts | 211° |
| 2026-04-23 19:06 | 44.55124 | -0.41035 | 35081 ft | 449 kts | 211° |
| 2026-04-23 19:07 | 44.49589 | -0.45096 | 35087 ft | 449 kts | 211° |
| 2026-04-23 19:07 | 44.44060 | -0.49153 | 35085 ft | 449 kts | 211° |
| 2026-04-23 19:08 | 44.38516 | -0.53198 | 35073 ft | 449 kts | 211° |
| 2026-04-23 19:08 | 44.32978 | -0.57234 | 35075 ft | 449 kts | 211° |
| 2026-04-23 19:09 | 44.27443 | -0.61263 | 35071 ft | 449 kts | 211° |
| 2026-04-23 19:09 | 44.21907 | -0.65293 | 35068 ft | 449 kts | 211° |
| 2026-04-23 19:10 | 44.16374 | -0.69307 | 35066 ft | 448 kts | 211° |
| 2026-04-23 19:10 | 44.10836 | -0.73302 | 35067 ft | 448 kts | 211° |
| 2026-04-23 19:11 | 44.05311 | -0.77299 | 35062 ft | 448 kts | 211° |
| 2026-04-23 19:11 | 43.99779 | -0.81279 | 35072 ft | 446 kts | 211° |
| 2026-04-23 19:12 | 43.95204 | -0.84566 | 35073 ft | 445 kts | 211° |
| 2026-04-23 19:12 | 43.88782 | -0.89186 | 35073 ft | 444 kts | 211° |
| 2026-04-23 19:13 | 43.83298 | -0.93110 | 35057 ft | 444 kts | 211° |
| 2026-04-23 19:13 | 43.77814 | -0.97020 | 35036 ft | 443 kts | 210° |
| 2026-04-23 19:14 | 43.72338 | -1.00911 | 35037 ft | 442 kts | 210° |
| 2026-04-23 19:14 | 43.66868 | -1.04807 | 35038 ft | 442 kts | 210° |
| 2026-04-23 19:15 | 43.61397 | -1.08691 | 35029 ft | 442 kts | 210° |
| 2026-04-23 19:15 | 43.55935 | -1.12570 | 35041 ft | 441 kts | 210° |
| 2026-04-23 19:16 | 43.50480 | -1.16438 | 35046 ft | 441 kts | 210° |
| 2026-04-23 19:16 | 43.45026 | -1.20284 | 35060 ft | 440 kts | 210° |
| 2026-04-23 19:17 | 43.36869 | -1.26021 | 35038 ft | 438 kts | 210° |
| 2026-04-23 19:17 | 43.31441 | -1.29827 | 35041 ft | 437 kts | 210° |
| 2026-04-23 19:18 | 43.26027 | -1.33621 | 35051 ft | 437 kts | 210° |
| 2026-04-23 19:18 | 43.20606 | -1.37409 | 35049 ft | 437 kts | 210° |
| 2026-04-23 19:19 | 43.12483 | -1.43076 | 35060 ft | 437 kts | 209° |
| 2026-04-23 19:20 | 43.04351 | -1.48726 | 35065 ft | 437 kts | 210° |
| 2026-04-23 19:20 | 42.98934 | -1.52496 | 35067 ft | 437 kts | 209° |
| 2026-04-23 19:21 | 42.90827 | -1.58147 | 35085 ft | 436 kts | 208° |
| 2026-04-23 19:22 | 42.85423 | -1.61884 | 35094 ft | 435 kts | 208° |
| 2026-04-23 19:22 | 42.77331 | -1.67479 | 35091 ft | 435 kts | 208° |
| 2026-04-23 19:23 | 42.71936 | -1.71186 | 35091 ft | 434 kts | 208° |
| 2026-04-23 19:24 | 42.63804 | -1.76635 | 35078 ft | 434 kts | 208° |
| 2026-04-23 19:24 | 42.55683 | -1.82092 | 35087 ft | 434 kts | 208° |
| 2026-04-23 19:25 | 42.44849 | -1.89333 | 35083 ft | 434 kts | 208° |
| 2026-04-23 19:26 | 42.36742 | -1.94739 | 35086 ft | 432 kts | 207° |
| 2026-04-23 19:27 | 42.23323 | -2.03646 | 35090 ft | 428 kts | 207° |
| 2026-04-23 19:28 | 42.12629 | -2.10726 | 35090 ft | 428 kts | 207° |
| 2026-04-23 19:29 | 42.04615 | -2.16016 | 35085 ft | 428 kts | 207° |
| 2026-04-23 19:30 | 41.96592 | -2.21271 | 35085 ft | 428 kts | 207° |
| 2026-04-23 19:31 | 41.88549 | -2.26538 | 35081 ft | 430 kts | 207° |
| 2026-04-23 19:31 | 41.83172 | -2.30076 | 35089 ft | 430 kts | 207° |
| 2026-04-23 19:32 | 41.77795 | -2.33581 | 35100 ft | 429 kts | 206° |
| 2026-04-23 19:32 | 41.72430 | -2.37077 | 35100 ft | 428 kts | 206° |
| 2026-04-23 19:33 | 41.67972 | -2.39970 | 35101 ft | 428 kts | 206° |
| 2026-04-23 19:33 | 41.59943 | -2.45178 | 35092 ft | 427 kts | 206° |
| 2026-04-23 19:34 | 41.54596 | -2.48652 | 35086 ft | 427 kts | 206° |
| 2026-04-23 19:35 | 41.46580 | -2.53824 | 35076 ft | 427 kts | 206° |
| 2026-04-23 19:35 | 41.41227 | -2.57274 | 35074 ft | 427 kts | 206° |
| 2026-04-23 19:36 | 41.35857 | -2.60665 | 35065 ft | 427 kts | 202° |
| 2026-04-23 19:36 | 41.30090 | -2.62557 | 35065 ft | 429 kts | 184° |
| 2026-04-23 19:37 | 41.24117 | -2.62252 | 35074 ft | 430 kts | 177° |
| 2026-04-23 19:37 | 41.18143 | -2.61699 | 35074 ft | 430 kts | 177° |
| 2026-04-23 19:38 | 41.12176 | -2.61170 | 35070 ft | 430 kts | 177° |
| 2026-04-23 19:38 | 41.06212 | -2.60638 | 35063 ft | 430 kts | 177° |
| 2026-04-23 19:39 | 41.00243 | -2.60116 | 35059 ft | 430 kts | 177° |
| 2026-04-23 19:39 | 40.94273 | -2.59578 | 35056 ft | 430 kts | 177° |
| 2026-04-23 19:40 | 40.88302 | -2.59037 | 35064 ft | 430 kts | 177° |
| 2026-04-23 19:40 | 40.82334 | -2.58498 | 35051 ft | 430 kts | 177° |
| 2026-04-23 19:41 | 40.76351 | -2.57955 | 35052 ft | 431 kts | 176° |
| 2026-04-23 19:41 | 40.70361 | -2.57412 | 35051 ft | 431 kts | 177° |
| 2026-04-23 19:42 | 40.64372 | -2.56872 | 35055 ft | 431 kts | 177° |
| 2026-04-23 19:42 | 40.58384 | -2.56350 | 35056 ft | 431 kts | 177° |
| 2026-04-23 19:43 | 40.52395 | -2.55808 | 35057 ft | 431 kts | 177° |
| 2026-04-23 19:43 | 40.46409 | -2.55284 | 35058 ft | 431 kts | 177° |
| 2026-04-23 19:44 | 40.40424 | -2.54792 | 35062 ft | 431 kts | 180° |
| 2026-04-23 19:44 | 40.34515 | -2.55824 | 35065 ft | 430 kts | 198° |
| 2026-04-23 19:45 | 40.28918 | -2.58600 | 35069 ft | 430 kts | 201° |
| 2026-04-23 19:45 | 40.23327 | -2.61419 | 35071 ft | 430 kts | 200° |
| 2026-04-23 19:46 | 40.17743 | -2.64232 | 35077 ft | 430 kts | 200° |
| 2026-04-23 19:46 | 40.12156 | -2.67015 | 35085 ft | 429 kts | 200° |
| 2026-04-23 19:47 | 40.06596 | -2.69808 | 35111 ft | 428 kts | 201° |
| 2026-04-23 19:47 | 40.01135 | -2.72531 | 35105 ft | 426 kts | 201° |
| 2026-04-23 19:48 | 39.95554 | -2.75310 | 35099 ft | 425 kts | 201° |
| 2026-04-23 19:48 | 39.90000 | -2.78061 | 35089 ft | 424 kts | 201° |
| 2026-04-23 19:49 | 39.84486 | -2.80793 | 35088 ft | 424 kts | 201° |
| 2026-04-23 19:49 | 39.79018 | -2.83503 | 35084 ft | 423 kts | 201° |
| 2026-04-23 19:50 | 39.73473 | -2.86247 | 35080 ft | 424 kts | 201° |
| 2026-04-23 19:50 | 39.67967 | -2.88973 | 35079 ft | 423 kts | 201° |
| 2026-04-23 19:51 | 39.62494 | -2.91662 | 35059 ft | 423 kts | 201° |
| 2026-04-23 19:51 | 39.56957 | -2.94392 | 35060 ft | 423 kts | 201° |
| 2026-04-23 19:52 | 39.51456 | -2.97105 | 35047 ft | 423 kts | 201° |
| 2026-04-23 19:52 | 39.45956 | -2.99817 | 35042 ft | 423 kts | 201° |
| 2026-04-23 19:53 | 39.40448 | -3.02506 | 35034 ft | 423 kts | 201° |
| 2026-04-23 19:53 | 39.34935 | -3.05195 | 35029 ft | 424 kts | 201° |
| 2026-04-23 19:54 | 39.29420 | -3.07888 | 35022 ft | 423 kts | 201° |
| 2026-04-23 19:54 | 39.23906 | -3.10567 | 35011 ft | 424 kts | 201° |
| 2026-04-23 19:55 | 39.18394 | -3.13249 | 35007 ft | 423 kts | 201° |
| 2026-04-23 19:55 | 39.12879 | -3.15925 | 34999 ft | 423 kts | 200° |
| 2026-04-23 19:56 | 39.07355 | -3.18574 | 34992 ft | 424 kts | 200° |
| 2026-04-23 19:56 | 39.01827 | -3.21245 | 34977 ft | 424 kts | 200° |
| 2026-04-23 19:57 | 38.96332 | -3.23898 | 34979 ft | 425 kts | 200° |
| 2026-04-23 19:57 | 38.90795 | -3.26562 | 34980 ft | 425 kts | 200° |
| 2026-04-23 19:58 | 38.85220 | -3.29239 | 34987 ft | 425 kts | 200° |
| 2026-04-23 19:58 | 38.79679 | -3.31900 | 34979 ft | 426 kts | 200° |
| 2026-04-23 19:59 | 38.74126 | -3.34555 | 34979 ft | 426 kts | 200° |
| 2026-04-23 19:59 | 38.68568 | -3.37215 | 34983 ft | 427 kts | 200° |
| 2026-04-23 20:00 | 38.63002 | -3.39871 | 34985 ft | 427 kts | 200° |
| 2026-04-23 20:00 | 38.57437 | -3.42510 | 34989 ft | 426 kts | 200° |
| 2026-04-23 20:01 | 38.51881 | -3.45159 | 35008 ft | 426 kts | 200° |
| 2026-04-23 20:01 | 38.46332 | -3.47798 | 35005 ft | 426 kts | 200° |
| 2026-04-23 20:02 | 38.40781 | -3.50433 | 35002 ft | 425 kts | 200° |
| 2026-04-23 20:02 | 38.35231 | -3.53060 | 34994 ft | 425 kts | 200° |
| 2026-04-23 20:03 | 38.29679 | -3.55670 | 34995 ft | 425 kts | 200° |
| 2026-04-23 20:03 | 38.24132 | -3.58290 | 34994 ft | 425 kts | 200° |
| 2026-04-23 20:04 | 38.18577 | -3.60909 | 34995 ft | 426 kts | 200° |
| 2026-04-23 20:04 | 38.13067 | -3.63651 | 34988 ft | 426 kts | 204° |
| 2026-04-23 20:05 | 38.08585 | -3.66238 | 34989 ft | 426 kts | 204° |
| 2026-04-23 20:05 | 38.02264 | -3.69832 | 34996 ft | 426 kts | 203° |
| 2026-04-23 20:06 | 37.96846 | -3.72893 | 35001 ft | 426 kts | 203° |
| 2026-04-23 20:06 | 37.91427 | -3.75936 | 35008 ft | 426 kts | 204° |
| 2026-04-23 20:07 | 37.86049 | -3.78977 | 35015 ft | 426 kts | 203° |
| 2026-04-23 20:07 | 37.80635 | -3.82012 | 35037 ft | 425 kts | 203° |
| 2026-04-23 20:08 | 37.75197 | -3.85071 | 35039 ft | 425 kts | 203° |
| 2026-04-23 20:08 | 37.69799 | -3.88089 | 35041 ft | 424 kts | 203° |
| 2026-04-23 20:09 | 37.64403 | -3.91106 | 35041 ft | 424 kts | 203° |
| 2026-04-23 20:09 | 37.59011 | -3.94120 | 35037 ft | 424 kts | 203° |
| 2026-04-23 20:10 | 37.54533 | -3.96633 | 35034 ft | 424 kts | 203° |
| 2026-04-23 20:10 | 37.48228 | -4.00141 | 35020 ft | 424 kts | 203° |
| 2026-04-23 20:11 | 37.42837 | -4.03129 | 35029 ft | 424 kts | 203° |
| 2026-04-23 20:11 | 37.38354 | -4.05624 | 35032 ft | 424 kts | 203° |
| 2026-04-23 20:12 | 37.32959 | -4.08618 | 35037 ft | 424 kts | 203° |
| 2026-04-23 20:12 | 37.27564 | -4.11600 | 35043 ft | 424 kts | 203° |
| 2026-04-23 20:13 | 37.22167 | -4.14592 | 35050 ft | 424 kts | 203° |
| 2026-04-23 20:13 | 37.16765 | -4.17561 | 35045 ft | 424 kts | 203° |
| 2026-04-23 20:14 | 37.11371 | -4.20548 | 35054 ft | 424 kts | 203° |
| 2026-04-23 20:14 | 37.05964 | -4.23518 | 35062 ft | 424 kts | 203° |
| 2026-04-23 20:15 | 37.00557 | -4.26480 | 35062 ft | 424 kts | 203° |
| 2026-04-23 20:15 | 36.95157 | -4.29447 | 35066 ft | 424 kts | 203° |
| 2026-04-23 20:16 | 36.89752 | -4.32407 | 35059 ft | 424 kts | 203° |
| 2026-04-23 20:16 | 36.84342 | -4.35365 | 35060 ft | 425 kts | 204° |
| 2026-04-23 20:17 | 36.79111 | -4.38781 | 35061 ft | 425 kts | 212° |
| 2026-04-23 20:17 | 36.74132 | -4.42767 | 35060 ft | 425 kts | 212° |
| 2026-04-23 20:17 | 36.71646 | -4.44747 | 34599 ft | 425 kts | 212° |
| 2026-04-23 20:18 | 36.69125 | -4.46748 | 33465 ft | 434 kts | 211° |
| 2026-04-23 20:18 | 36.66560 | -4.48787 | 32384 ft | 440 kts | 212° |
| 2026-04-23 20:18 | 36.63972 | -4.50841 | 31457 ft | 442 kts | 212° |
| 2026-04-23 20:18 | 36.61385 | -4.52890 | 30636 ft | 441 kts | 212° |
| 2026-04-23 20:19 | 36.58797 | -4.54952 | 29673 ft | 442 kts | 212° |
| 2026-04-23 20:19 | 36.56200 | -4.56999 | 28843 ft | 439 kts | 212° |
| 2026-04-23 20:19 | 36.53651 | -4.59015 | 28265 ft | 431 kts | 212° |
| 2026-04-23 20:19 | 36.51133 | -4.60995 | 27622 ft | 424 kts | 212° |
| 2026-04-23 20:20 | 36.48661 | -4.62944 | 26996 ft | 419 kts | 212° |
| 2026-04-23 20:20 | 36.46211 | -4.64873 | 26362 ft | 414 kts | 212° |
| 2026-04-23 20:20 | 36.43789 | -4.66781 | 25737 ft | 411 kts | 212° |
| 2026-04-23 20:20 | 36.41391 | -4.68679 | 25112 ft | 407 kts | 212° |
| 2026-04-23 20:21 | 36.39006 | -4.70552 | 24491 ft | 404 kts | 212° |
| 2026-04-23 20:21 | 36.36670 | -4.72386 | 23880 ft | 401 kts | 212° |
| 2026-04-23 20:21 | 36.34288 | -4.74259 | 23217 ft | 399 kts | 212° |
| 2026-04-23 20:21 | 36.31952 | -4.76082 | 22626 ft | 394 kts | 212° |
| 2026-04-23 20:22 | 36.29653 | -4.77888 | 22075 ft | 389 kts | 212° |
| 2026-04-23 20:22 | 36.27382 | -4.79672 | 21527 ft | 385 kts | 212° |
| 2026-04-23 20:22 | 36.25128 | -4.81431 | 20991 ft | 381 kts | 212° |
| 2026-04-23 20:22 | 36.22903 | -4.83180 | 20465 ft | 377 kts | 212° |
| 2026-04-23 20:23 | 36.20696 | -4.84914 | 19951 ft | 373 kts | 212° |
| 2026-04-23 20:23 | 36.18512 | -4.86624 | 19445 ft | 370 kts | 212° |
| 2026-04-23 20:23 | 36.16342 | -4.88322 | 18946 ft | 367 kts | 212° |
| 2026-04-23 20:23 | 36.14192 | -4.90002 | 18452 ft | 365 kts | 212° |
| 2026-04-23 20:24 | 36.12064 | -4.91691 | 17917 ft | 362 kts | 212° |
| 2026-04-23 20:24 | 36.09954 | -4.93368 | 17421 ft | 358 kts | 212° |
| 2026-04-23 20:24 | 36.07870 | -4.95024 | 16945 ft | 355 kts | 212° |
| 2026-04-23 20:24 | 36.05795 | -4.96661 | 16465 ft | 352 kts | 212° |
| 2026-04-23 20:25 | 36.03736 | -4.98286 | 15970 ft | 350 kts | 212° |
| 2026-04-23 20:25 | 36.01694 | -4.99907 | 15498 ft | 348 kts | 212° |
| 2026-04-23 20:25 | 35.99662 | -5.01508 | 15018 ft | 346 kts | 212° |
| 2026-04-23 20:25 | 35.97639 | -5.03102 | 14541 ft | 344 kts | 212° |
| 2026-04-23 20:26 | 35.95623 | -5.04687 | 14052 ft | 343 kts | 212° |
| 2026-04-23 20:26 | 35.93611 | -5.06268 | 13523 ft | 342 kts | 212° |
| 2026-04-23 20:26 | 35.91615 | -5.07839 | 13008 ft | 340 kts | 212° |
| 2026-04-23 20:26 | 35.89632 | -5.09399 | 12511 ft | 337 kts | 212° |
| 2026-04-23 20:27 | 35.87662 | -5.10945 | 12012 ft | 334 kts | 212° |
| 2026-04-23 20:27 | 35.85789 | -5.12622 | 11484 ft | 333 kts | 221° |
| 2026-04-23 20:27 | 35.84253 | -5.14749 | 10967 ft | 332 kts | 234° |
| 2026-04-23 20:27 | 35.83155 | -5.17232 | 10563 ft | 328 kts | 245° |
| 2026-04-23 20:28 | 35.82258 | -5.19792 | 10372 ft | 326 kts | 245° |
| 2026-04-23 20:28 | 35.81346 | -5.22363 | 10193 ft | 328 kts | 245° |
| 2026-04-23 20:28 | 35.80437 | -5.24938 | 10072 ft | 328 kts | 245° |
| 2026-04-23 20:28 | 35.79527 | -5.27509 | 9712 ft | 327 kts | 245° |
| 2026-04-23 20:29 | 35.78612 | -5.30068 | 9201 ft | 325 kts | 245° |
| 2026-04-23 20:29 | 35.77704 | -5.32613 | 8738 ft | 324 kts | 245° |
| 2026-04-23 20:29 | 35.76805 | -5.35147 | 8269 ft | 322 kts | 245° |
| 2026-04-23 20:29 | 35.75911 | -5.37661 | 7795 ft | 320 kts | 245° |
| 2026-04-23 20:30 | 35.75014 | -5.40165 | 7302 ft | 319 kts | 246° |
| 2026-04-23 20:30 | 35.73236 | -5.45155 | 6297 ft | 317 kts | 246° |
| 2026-04-23 20:30 | 35.72350 | -5.47629 | 5761 ft | 316 kts | 246° |
| 2026-04-23 20:31 | 35.71462 | -5.50107 | 5256 ft | 316 kts | 246° |
| 2026-04-23 20:31 | 35.70577 | -5.52581 | 4815 ft | 312 kts | 246° |
| 2026-04-23 20:31 | 35.69897 | -5.54981 | 4651 ft | 284 kts | 259° |
| 2026-04-23 20:31 | 35.69767 | -5.57345 | 4113 ft | 279 kts | 276° |
| 2026-04-23 20:32 | 35.70001 | -5.59686 | 3890 ft | 273 kts | 278° |
| 2026-04-23 20:32 | 35.70249 | -5.61996 | 3884 ft | 272 kts | 278° |
| 2026-04-23 20:32 | 35.70494 | -5.64311 | 3900 ft | 273 kts | 278° |
| 2026-04-23 20:32 | 35.70736 | -5.66616 | 3888 ft | 267 kts | 277° |
| 2026-04-23 20:33 | 35.70957 | -5.68825 | 3545 ft | 253 kts | 277° |
| 2026-04-23 20:33 | 35.71161 | -5.70914 | 3267 ft | 239 kts | 277° |
| 2026-04-23 20:33 | 35.71348 | -5.72860 | 3207 ft | 220 kts | 276° |
| 2026-04-23 20:33 | 35.71517 | -5.74641 | 3212 ft | 198 kts | 277° |
| 2026-04-23 20:34 | 35.71667 | -5.76229 | 3181 ft | 177 kts | 277° |
| 2026-04-23 20:34 | 35.71818 | -5.77694 | 2926 ft | 168 kts | 279° |
| 2026-04-23 20:34 | 35.71999 | -5.79095 | 2561 ft | 164 kts | 278° |
| 2026-04-23 20:34 | 35.72110 | -5.80387 | 2140 ft | 163 kts | 275° |
| 2026-04-23 20:35 | 35.72192 | -5.81746 | 1788 ft | 156 kts | 277° |
| 2026-04-23 20:35 | 35.72324 | -5.83049 | 1414 ft | 151 kts | 278° |
| 2026-04-23 20:35 | 35.72436 | -5.84318 | 1128 ft | 147 kts | 278° |
| 2026-04-23 20:35 | 35.72544 | -5.85555 | 865 ft | 141 kts | 278° |
| 2026-04-23 20:36 | 35.72656 | -5.86779 | 686 ft | 145 kts | 278° |
| 2026-04-23 20:36 | 35.72774 | -5.88002 | 509 ft | 143 kts | 277° |
| 2026-04-23 20:36 | 35.72886 | -5.89217 | 353 ft | 140 kts | 279° |
| 2026-04-23 20:36 | 35.73001 | -5.90407 | 150 ft | 141 kts | 278° |
| 2026-04-23 20:37 | 35.73108 | -5.91538 | 61 ft | 122 kts | 278° |
| 2026-04-23 20:37 | 35.73189 | -5.92380 | 52 ft | 73 kts | 276° |
| 2026-04-23 20:37 | 35.73236 | -5.92872 | 60 ft | 51 kts | 277° |
| 2026-04-23 20:37 | 35.73266 | -5.93203 | 54 ft | 21 kts | 272° |
| 2026-04-23 20:38 | 35.73180 | -5.93336 | 55 ft | 22 kts | 193° |
| 2026-04-23 20:38 | 35.73085 | -5.93209 | 57 ft | 23 kts | 98° |
| 2026-04-23 20:38 | 35.73067 | -5.93012 | 60 ft | 24 kts | 96° |
| 2026-04-23 20:38 | 35.73048 | -5.92793 | 60 ft | 26 kts | 97° |
| 2026-04-23 20:39 | 35.73025 | -5.92561 | 60 ft | 28 kts | 97° |
| 2026-04-23 20:39 | 35.73001 | -5.92312 | 54 ft | 30 kts | 96° |
| 2026-04-23 20:39 | 35.72977 | -5.92056 | 57 ft | 24 kts | 97° |
| 2026-04-23 20:39 | 35.72965 | -5.91929 | 59 ft | 7 kts | 96° |
| 2026-04-23 20:40 | 35.72964 | -5.91919 | 58 ft | 0 kts | 96° |
| 2026-04-23 20:41 | 35.72962 | -5.91897 | 59 ft | 11 kts | 96° |
| 2026-04-23 20:41 | 35.72950 | -5.91776 | 60 ft | 14 kts | 99° |
| 2026-04-23 20:42 | 35.72879 | -5.91720 | 56 ft | 13 kts | 175° |
| 2026-04-23 20:42 | 35.72792 | -5.91712 | 60 ft | 12 kts | 175° |
| 2026-04-23 20:42 | 35.72708 | -5.91705 | 60 ft | 12 kts | 176° |
| 2026-04-23 20:42 | 35.72627 | -5.91698 | 60 ft | 12 kts | 175° |
| 2026-04-23 20:43 | 35.72548 | -5.91690 | 60 ft | 11 kts | 175° |
| 2026-04-23 20:43 | 35.72475 | -5.91668 | 55 ft | 11 kts | 146° |
| 2026-04-23 20:43 | 35.72433 | -5.91596 | 54 ft | 10 kts | 112° |
| 2026-04-23 20:43 | 35.72426 | -5.91510 | 54 ft | 10 kts | 85° |
| 2026-04-23 20:44 | 35.72432 | -5.91425 | 60 ft | 10 kts | 85° |
| 2026-04-23 20:44 | 35.72438 | -5.91342 | 60 ft | 10 kts | 85° |
| 2026-04-23 20:44 | 35.72443 | -5.91261 | 60 ft | 9 kts | 85° |
| 2026-04-23 20:44 | 35.72448 | -5.91182 | 60 ft | 9 kts | 85° |
| 2026-04-23 20:45 | 35.72459 | -5.91132 | 53 ft | 4 kts | 43° |
| 2026-04-23 20:45 | 35.72482 | -5.91131 | 58 ft | 3 kts | 353° |
| 2026-04-23 20:45 | 35.72497 | -5.91134 | 60 ft | 2 kts | 353° |
| 2026-04-23 20:45 | 35.72517 | -5.91136 | 60 ft | 4 kts | 355° |
| 2026-04-23 20:46 | 35.72534 | -5.91137 | 60 ft | 0 kts | 356° |